Aérodrome :
LOGIN :

S'inscrire | Disclaimer

   EN    FR    IT 

 










Légende :    VFR   VFR Marginal   IFR   IFR Intensif   IFR Très Intensif
Visi : 
Plafond : 
>= 8 km
>= 3000ft
5 à 8 km
1000 à 3000 ft
1500m à 5 km
500 à 1000 ft
800 à 1500m
200 à 500 ft
< 800m
< 200 ft
Symboles :   Orages  Brouillard  Fortes neiges  Fortes précipitations  Vent > 20 kt
SIGMETs :   Divers  Orages  Givrage  Turbulence  Onde Orograph.  Cendres Volcan.






- Altitude de l'aérodrome : 87 ft
- Code IATA : FSC


LFKF - Figari

DERNIER METAR :
  • 220500Z AUTO 23014KT 7000 SCT018/// BKN024/// BKN036/// ///TCU 14/12 Q1009 TEMPO BKN014

METARs EXPIRÉS :
  • 220430Z AUTO 24014KT 7000 FEW014/// SCT024/// OVC050/// ///TCU 14/12 Q1010 TEMPO BKN014
  • 220400Z AUTO 23013KT 8000 BKN017/// BKN025/// OVC052/// ///TCU 14/12 Q1010 TEMPO BKN014
  • 220330Z AUTO 23012KT 7000 FEW013 BKN019 BKN028 14/12 Q1010 TEMPO BKN014
  • 220300Z AUTO 22013KT 8000 FEW012 BKN024 BKN034 14/12 Q1010 TEMPO BKN014
  • 220230Z AUTO 22013KT 8000 BKN015 BKN023 OVC029 14/12 Q1011 TEMPO BKN014

TAF TAF LFKF
Valide du 22 à 03h jusqu'au 23 à 03h UTC


220200Z 2203/2303 23012KT 9999 SCT015 BKN020
TEMPO 2203/2209 -RA BKN014
BECMG 2209/2211 23020G30KT SHRA BKN020 FEW035CB BKN050
TEMPO 2211/2221 24020G40KT
PROB40
TEMPO 2212/2215 4000 TSRA
BECMG 2221/2223 27020G35KT 9999 FEW040



MET'MAP, la Météo Aéronautique d'un coup d'oeil ! - Copyright ORBIFLY Décembre 2007 - Disclaimer

ORBIFLY MET'MAP TEAM :

Programmation & Développement : Alexandra Zaïnal
Sur une idée originale de : Baudouin d'Aumeries
Assistance à la programmation : Marc-Olivier Méhu
Soutien technique & logistique : Manuel Goepfert

Contact : metmap@orbifly.com




SOURCES & CREDITS :

   NOAA